Time;durP1;ratioP1;P1;durP2;ratioP2;P2;SDS_P1;SDS_P2;PMS_P1;PMS_P2;Temp;Humidity;BMP_temperature;BMP_pressure;BME280_temperature;BME280_humidity;BME280_pressure;Samples;Min_cycle;Max_cycle;Signal;HPM_P1;HPM_P2
2023/02/08 00:01:21;;;;;;;4.63;1.70;;;-0.40;96.70;;;;;;5060175;28;20044;-83
2023/02/08 00:03:48;;;;;;;4.03;1.60;;;-0.40;96.70;;;;;;5060303;28;20114;-83
2023/02/08 00:06:16;;;;;;;4.90;1.70;;;-0.40;96.70;;;;;;5043794;28;20499;-82
2023/02/08 00:08:44;;;;;;;4.80;2.10;;;-0.40;96.70;;;;;;5077086;28;20044;-83
2023/02/08 00:11:11;;;;;;;3.23;1.43;;;-0.40;96.70;;;;;;5060313;28;20052;-83
2023/02/08 00:13:40;;;;;;;3.43;1.67;;;-0.50;96.70;;;;;;5043460;28;20044;-82
2023/02/08 00:16:09;;;;;;;4.13;1.67;;;-0.50;96.70;;;;;;5043619;28;20135;-83
2023/02/08 00:18:36;;;;;;;4.30;1.73;;;-0.50;96.70;;;;;;5058677;28;20432;-83
2023/02/08 00:21:12;;;;;;;4.37;1.70;;;-0.50;96.80;;;;;;5039773;28;20087;-82
2023/02/08 00:23:39;;;;;;;5.03;1.97;;;-0.50;96.70;;;;;;5056253;28;20044;-82
2023/02/08 00:26:07;;;;;;;4.00;2.17;;;-0.60;97.00;;;;;;5056165;28;20036;-82
2023/02/08 00:28:37;;;;;;;4.43;1.87;;;-0.60;96.80;;;;;;5035179;28;20055;-83
2023/02/08 00:31:04;;;;;;;3.83;1.27;;;-0.60;96.80;;;;;;5054519;28;20094;-82
2023/02/08 00:33:33;;;;;;;4.93;2.40;;;-0.60;96.80;;;;;;5039707;28;20044;-82
2023/02/08 00:36:02;;;;;;;3.73;1.90;;;-0.60;96.80;;;;;;5036481;28;20061;-82
2023/02/08 00:38:30;;;;;;;3.80;1.47;;;-0.60;96.80;;;;;;5039612;28;20040;-83
2023/02/08 00:40:56;;;;;;;5.10;2.07;;;-0.70;96.80;;;;;;5042445;28;20040;-82
2023/02/08 00:43:23;;;;;;;4.50;1.73;;;-0.70;96.80;;;;;;5075909;28;20036;-82
2023/02/08 00:45:55;;;;;;;4.10;1.60;;;-0.70;96.80;;;;;;5043129;28;20044;-82
2023/02/08 00:48:24;;;;;;;3.77;1.70;;;-0.60;96.80;;;;;;5075703;28;20048;-83
2023/02/08 00:50:57;;;;;;;3.63;1.43;;;-0.70;96.80;;;;;;5058838;28;20067;-82
2023/02/08 00:53:24;;;;;;;3.10;1.23;;;-0.60;96.80;;;;;;5075622;28;20507;-82
2023/02/08 00:55:53;;;;;;;3.23;1.60;;;-0.70;96.70;;;;;;5075655;28;20067;-82
2023/02/08 00:58:21;;;;;;;4.47;1.73;;;-0.60;96.80;;;;;;5075531;28;20557;-82
2023/02/08 01:00:52;;;;;;;3.90;1.73;;;-0.70;96.70;;;;;;5075388;28;20554;-82
2023/02/08 01:03:23;;;;;;;3.43;1.60;;;-0.60;96.70;;;;;;5041125;28;20480;-82
2023/02/08 01:05:51;;;;;;;3.27;1.37;;;-0.60;96.70;;;;;;5039207;28;20048;-82
2023/02/08 01:08:19;;;;;;;3.60;1.40;;;-0.70;96.70;;;;;;5022726;28;20408;-82
2023/02/08 01:10:48;;;;;;;3.63;1.37;;;-0.70;96.70;;;;;;5023114;28;20051;-82
2023/02/08 01:13:15;;;;;;;3.33;1.40;;;-0.70;96.70;;;;;;5018928;28;20050;-82
2023/02/08 01:15:42;;;;;;;3.70;1.60;;;-0.70;96.70;;;;;;5038866;28;20049;-82
2023/02/08 01:18:09;;;;;;;3.57;1.63;;;-0.70;96.70;;;;;;5038767;28;20071;-82
2023/02/08 01:20:37;;;;;;;3.13;1.33;;;-0.70;96.70;;;;;;5038772;28;20044;-82
2023/02/08 01:23:04;;;;;;;3.77;1.37;;;-0.70;96.70;;;;;;5035790;28;20087;-79
2023/02/08 01:25:32;;;;;;;4.17;1.90;;;-0.70;96.70;;;;;;5005859;28;20047;-79
2023/02/08 01:27:59;;;;;;;3.93;1.90;;;-0.80;96.70;;;;;;5038623;28;20040;-80
2023/02/08 01:30:26;;;;;;;4.23;2.10;;;-0.80;96.70;;;;;;5038460;28;20064;-80
2023/02/08 01:32:54;;;;;;;3.60;1.43;;;-0.80;96.70;;;;;;5038458;28;20068;-82
2023/02/08 01:35:21;;;;;;;4.20;2.03;;;-0.80;96.80;;;;;;5038850;28;20056;-82
2023/02/08 01:37:48;;;;;;;4.33;1.80;;;-0.80;96.80;;;;;;5035888;28;20076;-83
2023/02/08 01:40:15;;;;;;;2.83;1.13;;;-0.90;96.80;;;;;;5058555;28;20048;-83
2023/02/08 01:42:42;;;;;;;3.57;1.50;;;-0.90;96.80;;;;;;5040064;28;20130;-82
2023/02/08 01:45:15;;;;;;;3.80;1.70;;;-0.90;96.80;;;;;;5006145;28;20045;-83
2023/02/08 01:47:44;;;;;;;3.47;1.20;;;-0.90;96.80;;;;;;5055074;28;20050;-82
2023/02/08 01:50:12;;;;;;;3.23;1.27;;;-0.90;96.80;;;;;;5038518;28;20033;-82
2023/02/08 01:52:42;;;;;;;3.27;1.33;;;-0.90;96.80;;;;;;4987044;28;20044;-82
2023/02/08 01:55:16;;;;;;;3.13;1.37;;;-0.90;96.80;;;;;;5019221;28;20037;-82
2023/02/08 01:57:45;;;;;;;3.93;1.77;;;-0.90;96.80;;;;;;5035160;28;20045;-82
2023/02/08 02:00:21;;;;;;;3.37;1.43;;;-0.90;96.80;;;;;;5035163;28;20069;-82
2023/02/08 02:02:52;;;;;;;4.13;1.77;;;-0.90;96.80;;;;;;5035582;28;20041;-82
2023/02/08 02:05:21;;;;;;;5.07;1.70;;;-0.90;96.80;;;;;;5034997;28;20386;-82
2023/02/08 02:07:49;;;;;;;4.03;1.33;;;-0.90;96.80;;;;;;5027492;28;20051;-82
2023/02/08 02:10:19;;;;;;;3.53;1.33;;;-0.90;96.80;;;;;;5038076;28;20079;-82
2023/02/08 02:12:46;;;;;;;3.80;1.90;;;-1.00;96.80;;;;;;5054836;28;20045;-83
2023/02/08 02:15:14;;;;;;;3.83;1.40;;;-1.00;96.80;;;;;;5022192;28;20086;-83
2023/02/08 02:17:41;;;;;;;3.63;1.40;;;-1.00;96.80;;;;;;5005718;28;20410;-82
2023/02/08 02:20:40;;;;;;;3.63;2.00;;;-1.10;96.80;;;;;;5045030;28;20091;-82
2023/02/08 02:23:46;;;;;;;3.33;1.50;;;-1.10;96.80;;;;;;5030733;28;20080;-82
2023/02/08 02:26:37;;;;;;;5.83;1.97;;;-1.10;96.80;;;;;;5022236;28;20041;-82
2023/02/08 02:30:05;;;;;;;3.27;1.30;;;-1.10;96.80;;;;;;5042998;28;20079;-82
2023/02/08 02:32:38;;;;;;;3.03;1.20;;;-1.10;96.80;;;;;;4963009;28;20106;-82
2023/02/08 02:35:05;;;;;;;3.53;1.33;;;-1.10;96.90;;;;;;5058668;28;20053;-82
2023/02/08 02:37:52;;;;;;;3.40;1.60;;;-1.20;96.80;;;;;;5042002;28;20454;-82
2023/02/08 02:40:57;;;;;;;4.40;1.83;;;-1.20;96.90;;;;;;5056420;28;20044;-82
2023/02/08 02:43:41;;;;;;;3.47;1.70;;;-1.10;96.90;;;;;;5078800;28;20046;-82
2023/02/08 02:46:25;;;;;;;4.47;2.13;;;-1.20;96.90;;;;;;5061416;28;20044;-82
2023/02/08 02:49:23;;;;;;;3.47;1.33;;;-1.20;96.90;;;;;;5072417;28;20567;-81
2023/02/08 02:51:49;;;;;;;3.83;1.73;;;-1.20;96.90;;;;;;5041349;28;20052;-81
2023/02/08 02:54:55;;;;;;;5.10;1.93;;;-1.30;96.90;;;;;;5041340;28;20048;-82
2023/02/08 02:57:28;;;;;;;3.73;1.57;;;-1.30;96.90;;;;;;5004498;28;20048;-82
2023/02/08 02:59:57;;;;;;;4.17;1.50;;;-1.30;96.90;;;;;;5057087;28;20041;-82
2023/02/08 03:02:26;;;;;;;3.57;1.67;;;-1.30;96.90;;;;;;5016866;28;20051;-82
2023/02/08 03:04:56;;;;;;;3.67;1.30;;;-1.30;96.90;;;;;;5041048;28;20044;-82
2023/02/08 03:07:54;;;;;;;4.20;1.60;;;-1.30;96.90;;;;;;5041085;28;20063;-82
2023/02/08 03:10:42;;;;;;;3.30;1.07;;;-1.30;96.90;;;;;;5056402;28;20043;-81
2023/02/08 03:13:25;;;;;;;4.47;1.60;;;-1.30;97.00;;;;;;5041045;28;20071;-82
2023/02/08 03:16:15;;;;;;;4.53;1.80;;;-1.30;96.90;;;;;;5056840;28;20071;-82
2023/02/08 03:18:46;;;;;;;3.40;1.70;;;-1.40;96.90;;;;;;5062205;28;20040;-82
2023/02/08 03:21:37;;;;;;;3.40;1.40;;;-1.40;96.90;;;;;;5063846;28;20443;-82
2023/02/08 03:24:21;;;;;;;4.43;1.50;;;-1.40;97.00;;;;;;5057512;28;20086;-82
2023/02/08 03:27:11;;;;;;;4.77;2.20;;;-1.40;97.00;;;;;;5040809;28;20044;-82
2023/02/08 03:30:05;;;;;;;3.67;1.73;;;-1.40;97.00;;;;;;5040117;28;20504;-82
2023/02/08 03:32:54;;;;;;;3.40;1.20;;;-1.40;97.00;;;;;;5040241;28;20452;-82
2023/02/08 03:35:36;;;;;;;4.07;1.77;;;-1.40;97.00;;;;;;5040410;28;20063;-82
2023/02/08 03:38:08;;;;;;;3.53;1.58;;;-1.40;97.00;;;;;;5039792;28;20052;-81
2023/02/08 03:40:45;;;;;;;3.70;1.38;;;-1.40;97.00;;;;;;5056879;28;20040;-81
2023/02/08 03:43:18;;;;;;;4.60;1.73;;;-1.40;97.00;;;;;;5057005;28;20040;-82
2023/02/08 03:45:56;;;;;;;4.03;1.30;;;-1.50;97.00;;;;;;5056847;28;20455;-82
2023/02/08 03:48:25;;;;;;;3.67;1.67;;;-1.50;97.00;;;;;;5063789;28;20040;-82
2023/02/08 03:50:55;;;;;;;4.27;1.80;;;-1.50;97.00;;;;;;5060159;28;20044;-82
2023/02/08 03:53:24;;;;;;;4.83;1.77;;;-1.50;97.00;;;;;;5060205;28;20056;-82
2023/02/08 03:56:00;;;;;;;4.03;1.57;;;-1.50;97.00;;;;;;5060093;28;20044;-81
2023/02/08 03:58:32;;;;;;;4.40;1.90;;;-1.50;97.00;;;;;;5052213;28;20272;-82
2023/02/08 04:01:17;;;;;;;3.92;1.67;;;-1.50;97.00;;;;;;5056367;28;20048;-82
2023/02/08 04:03:47;;;;;;;3.97;1.73;;;-1.50;97.00;;;;;;5018311;28;20056;-81
2023/02/08 04:06:15;;;;;;;3.87;1.50;;;-1.50;97.00;;;;;;5035143;28;20051;-81
2023/02/08 04:08:42;;;;;;;4.27;1.83;;;-1.50;97.10;;;;;;5036448;28;20047;-82
2023/02/08 04:11:09;;;;;;;3.53;1.57;;;-1.50;97.10;;;;;;5036602;28;20507;-82
2023/02/08 04:13:36;;;;;;;4.27;1.80;;;-1.50;97.10;;;;;;5023070;28;20054;-82
2023/02/08 04:16:03;;;;;;;3.57;1.50;;;-1.50;97.10;;;;;;5073085;28;20091;-82
2023/02/08 04:18:30;;;;;;;4.40;2.40;;;-1.50;97.00;;;;;;5049588;28;20063;-81
2023/02/08 04:20:57;;;;;;;4.40;2.00;;;-1.50;97.00;;;;;;5059776;28;20484;-82
2023/02/08 04:23:24;;;;;;;4.17;1.60;;;-1.50;97.00;;;;;;5059579;28;20040;-82
2023/02/08 04:25:51;;;;;;;3.63;1.57;;;-1.50;97.00;;;;;;5059675;28;20082;-82
2023/02/08 04:28:18;;;;;;;4.53;2.30;;;-1.50;97.00;;;;;;5048776;28;20043;-81
2023/02/08 04:30:46;;;;;;;5.20;2.00;;;-1.50;97.00;;;;;;5023213;28;20068;-82
2023/02/08 04:33:13;;;;;;;4.70;1.90;;;-1.60;97.00;;;;;;5039504;28;20122;-82
2023/02/08 04:35:41;;;;;;;3.10;1.63;;;-1.60;97.10;;;;;;5039932;28;20052;-82
2023/02/08 04:38:08;;;;;;;5.17;1.93;;;-1.60;97.10;;;;;;5031822;28;20064;-81
2023/02/08 04:40:35;;;;;;;3.67;1.57;;;-1.60;97.00;;;;;;5042811;28;20082;-82
2023/02/08 04:43:03;;;;;;;3.73;1.90;;;-1.60;97.10;;;;;;5059143;28;20466;-82
2023/02/08 04:45:31;;;;;;;4.73;1.50;;;-1.70;97.00;;;;;;5042168;28;20044;-82
2023/02/08 04:48:02;;;;;;;3.67;1.60;;;-1.60;97.10;;;;;;5052046;28;20127;-82
2023/02/08 04:50:29;;;;;;;3.83;1.77;;;-1.70;97.10;;;;;;5039517;28;20178;-82
2023/02/08 04:52:56;;;;;;;4.47;1.53;;;-1.70;97.10;;;;;;5039180;28;20059;-82
2023/02/08 04:55:23;;;;;;;4.30;1.63;;;-1.70;97.10;;;;;;5039133;28;20059;-83
2023/02/08 04:57:50;;;;;;;3.97;1.50;;;-1.70;97.10;;;;;;5022543;28;20506;-82
2023/02/08 05:00:17;;;;;;;4.07;1.83;;;-1.70;97.10;;;;;;5039561;28;20040;-82
2023/02/08 05:02:45;;;;;;;4.70;1.87;;;-1.70;97.10;;;;;;5038975;28;20044;-81
2023/02/08 05:05:12;;;;;;;3.40;1.40;;;-1.70;97.10;;;;;;5039409;28;20395;-82
2023/02/08 05:07:39;;;;;;;4.60;1.77;;;-1.70;97.10;;;;;;5070054;28;20048;-82
2023/02/08 05:10:09;;;;;;;4.03;1.30;;;-1.70;97.10;;;;;;5043042;28;20883;-82
2023/02/08 05:12:36;;;;;;;4.27;1.70;;;-1.70;97.10;;;;;;5058768;28;20381;-82
2023/02/08 05:15:04;;;;;;;5.03;2.30;;;-1.70;97.10;;;;;;5075228;28;20051;-81
2023/02/08 05:17:31;;;;;;;4.10;2.13;;;-1.70;97.00;;;;;;5058189;28;20048;-82
2023/02/08 05:19:58;;;;;;;4.40;2.17;;;-1.70;97.00;;;;;;5058364;28;20132;-82
2023/02/08 05:22:24;;;;;;;5.20;2.23;;;-1.60;97.00;;;;;;5058589;28;20511;-82
2023/02/08 05:24:51;;;;;;;5.00;1.90;;;-1.60;96.90;;;;;;5075206;28;20089;-82
2023/02/08 05:27:18;;;;;;;3.60;1.93;;;-1.60;96.90;;;;;;5042008;28;20094;-82
2023/02/08 05:29:46;;;;;;;4.97;2.33;;;-1.50;96.90;;;;;;5055095;28;20049;-82
2023/02/08 05:32:13;;;;;;;4.63;2.10;;;-1.60;96.80;;;;;;5038531;28;20040;-82
2023/02/08 05:34:40;;;;;;;4.47;1.97;;;-1.50;96.80;;;;;;5054984;28;20045;-82
2023/02/08 05:37:07;;;;;;;4.23;1.70;;;-1.50;96.80;;;;;;5052437;28;20407;-82
2023/02/08 05:39:34;;;;;;;4.17;2.03;;;-1.60;96.80;;;;;;5058705;28;20048;-83
2023/02/08 05:42:01;;;;;;;4.73;1.67;;;-1.60;96.80;;;;;;5042148;28;20407;-83
2023/02/08 05:44:28;;;;;;;5.23;2.30;;;-1.50;96.80;;;;;;5058965;28;20070;-82
2023/02/08 05:46:55;;;;;;;5.43;2.57;;;-1.60;96.80;;;;;;5027097;28;20106;-82
2023/02/08 05:49:22;;;;;;;4.70;2.03;;;-1.60;96.80;;;;;;5005729;28;20044;-82
2023/02/08 05:51:49;;;;;;;5.40;2.40;;;-1.60;96.80;;;;;;5038379;28;20048;-82
2023/02/08 05:54:16;;;;;;;5.53;2.00;;;-1.60;96.80;;;;;;5038058;28;20044;-82
2023/02/08 05:56:43;;;;;;;4.20;1.97;;;-1.60;96.80;;;;;;5043499;28;20044;-82
2023/02/08 05:59:10;;;;;;;4.07;2.03;;;-1.60;96.80;;;;;;5045750;28;20044;-83
2023/02/08 06:01:37;;;;;;;5.83;2.80;;;-1.60;96.80;;;;;;5079455;28;20511;-83
2023/02/08 06:04:04;;;;;;;5.40;2.27;;;-1.60;96.80;;;;;;5045583;28;20032;-82
2023/02/08 06:06:31;;;;;;;5.73;2.23;;;-1.60;96.80;;;;;;5079482;28;20111;-82
2023/02/08 06:08:58;;;;;;;6.40;2.20;;;-1.60;96.80;;;;;;5058079;28;20403;-83
2023/02/08 06:11:26;;;;;;;5.27;2.00;;;-1.60;96.80;;;;;;5079109;28;20040;-82
2023/02/08 06:13:54;;;;;;;4.60;2.17;;;-1.60;96.80;;;;;;5062237;28;20051;-82
2023/02/08 06:16:21;;;;;;;4.93;1.87;;;-1.60;96.80;;;;;;5045827;28;20047;-82
2023/02/08 06:18:48;;;;;;;7.43;2.40;;;-1.60;96.80;;;;;;5053434;28;20512;-82
2023/02/08 06:21:15;;;;;;;5.00;2.37;;;-1.60;96.80;;;;;;5025529;28;20048;-82
2023/02/08 06:23:42;;;;;;;4.50;2.13;;;-1.60;96.90;;;;;;5045471;28;20417;-81
2023/02/08 06:26:10;;;;;;;4.27;1.80;;;-1.70;96.80;;;;;;5021921;28;20049;-81
2023/02/08 06:28:37;;;;;;;4.43;2.00;;;-1.70;96.90;;;;;;5029459;28;20046;-81
2023/02/08 06:31:04;;;;;;;4.87;1.80;;;-1.70;96.90;;;;;;5078107;28;20062;-81
2023/02/08 06:33:31;;;;;;;5.77;2.63;;;-1.70;96.90;;;;;;5044792;28;20040;-80
2023/02/08 06:35:58;;;;;;;5.97;2.50;;;-1.70;96.90;;;;;;5061288;28;20056;-80
2023/02/08 06:38:25;;;;;;;5.37;2.13;;;-1.70;96.90;;;;;;5078081;28;20393;-80
2023/02/08 06:40:52;;;;;;;3.90;1.97;;;-1.70;96.90;;;;;;5058261;28;20060;-80
2023/02/08 06:43:19;;;;;;;5.77;3.13;;;-1.70;96.90;;;;;;5039970;28;20095;-80
2023/02/08 06:45:46;;;;;;;6.00;2.20;;;-1.70;96.90;;;;;;5025099;28;20040;-80
2023/02/08 06:48:14;;;;;;;4.57;2.23;;;-1.70;96.90;;;;;;5041192;28;20067;-81
2023/02/08 06:50:41;;;;;;;4.67;2.03;;;-1.70;96.90;;;;;;5041390;28;20056;-81
2023/02/08 06:53:09;;;;;;;4.37;1.90;;;-1.70;96.90;;;;;;5023200;28;20041;-82
2023/02/08 06:55:36;;;;;;;5.43;2.33;;;-1.70;96.90;;;;;;5034074;28;20087;-80
2023/02/08 06:58:03;;;;;;;5.50;2.37;;;-1.70;96.90;;;;;;5041034;28;20075;-81
2023/02/08 07:00:30;;;;;;;5.47;2.63;;;-1.70;96.90;;;;;;5053687;28;20066;-80
2023/02/08 07:02:59;;;;;;;6.27;2.27;;;-1.70;96.90;;;;;;5031407;28;20048;-80
2023/02/08 07:05:26;;;;;;;4.67;2.33;;;-1.70;97.00;;;;;;4997715;28;20064;-81
2023/02/08 07:07:53;;;;;;;4.40;1.83;;;-1.70;97.00;;;;;;5052665;28;20049;-80
2023/02/08 07:10:20;;;;;;;5.10;1.90;;;-1.70;96.90;;;;;;5075428;28;20130;-80
2023/02/08 07:12:47;;;;;;;5.37;2.20;;;-1.70;96.90;;;;;;5077539;28;20036;-80
2023/02/08 07:15:14;;;;;;;4.23;2.00;;;-1.70;96.90;;;;;;5052728;28;20053;-81
2023/02/08 07:17:41;;;;;;;5.13;1.90;;;-1.70;96.90;;;;;;5024487;28;20056;-80
2023/02/08 07:20:10;;;;;;;4.07;1.70;;;-1.70;97.20;;;;;;5039472;28;20431;-81
2023/02/08 07:22:38;;;;;;;4.43;2.03;;;-1.70;96.90;;;;;;5029950;28;20052;-80
2023/02/08 07:25:08;;;;;;;4.47;1.60;;;-1.70;96.90;;;;;;5020753;28;20037;-81
2023/02/08 07:27:35;;;;;;;6.03;2.17;;;-1.70;96.90;;;;;;5039309;28;20441;-80
2023/02/08 07:30:02;;;;;;;5.13;1.77;;;-1.70;96.90;;;;;;5042301;28;20036;-81
2023/02/08 07:32:30;;;;;;;5.03;2.00;;;-1.70;96.90;;;;;;5040521;28;20048;-81
2023/02/08 07:35:00;;;;;;;5.87;2.40;;;-1.60;96.90;;;;;;5040659;28;20048;-81
2023/02/08 07:37:31;;;;;;;4.67;1.93;;;-1.60;96.80;;;;;;5043868;28;20044;-81
2023/02/08 07:39:58;;;;;;;5.17;2.10;;;-1.60;97.10;;;;;;5060190;28;20074;-81
2023/02/08 07:42:26;;;;;;;5.90;2.30;;;-1.50;96.80;;;;;;5043877;28;20166;-80
2023/02/08 07:45:07;;;;;;;6.17;3.13;;;-1.50;97.00;;;;;;5062163;28;20040;-80
2023/02/08 07:47:34;;;;;;;4.60;2.13;;;-1.50;96.80;;;;;;5043821;28;20048;-81
2023/02/08 07:50:01;;;;;;;7.77;2.40;;;-1.40;96.70;;;;;;5043443;28;20143;-81
2023/02/08 07:52:28;;;;;;;5.13;2.30;;;-1.40;96.70;;;;;;5027461;28;20040;-80
2023/02/08 07:54:55;;;;;;;4.23;1.97;;;-1.40;96.70;;;;;;5076656;28;20056;-81
2023/02/08 07:57:22;;;;;;;5.33;2.20;;;-1.40;96.60;;;;;;5043833;28;20048;-80
2023/02/08 07:59:49;;;;;;;4.63;1.77;;;-1.30;96.60;;;;;;5043680;28;20040;-81
2023/02/08 08:02:19;;;;;;;4.03;2.10;;;-1.30;96.80;;;;;;5077257;28;20066;-81
2023/02/08 08:04:46;;;;;;;4.13;1.67;;;-1.30;96.50;;;;;;5043508;28;20040;-81
2023/02/08 08:07:13;;;;;;;4.90;1.90;;;-1.20;96.50;;;;;;5024725;28;20072;-80
2023/02/08 08:09:40;;;;;;;4.33;1.70;;;-1.20;96.50;;;;;;5036975;28;20052;-81
2023/02/08 08:12:07;;;;;;;4.00;1.73;;;-1.20;96.50;;;;;;5028019;28;20510;-80
2023/02/08 08:14:34;;;;;;;5.10;1.90;;;-1.20;96.40;;;;;;5028079;28;20132;-81
2023/02/08 08:17:01;;;;;;;4.60;2.07;;;-1.10;96.40;;;;;;5034998;28;20049;-81
2023/02/08 08:19:28;;;;;;;6.43;3.20;;;-1.10;96.40;;;;;;5055360;28;20049;-80
2023/02/08 08:21:55;;;;;;;4.47;2.07;;;-1.00;96.40;;;;;;5037167;28;20055;-81
2023/02/08 08:24:22;;;;;;;4.17;1.83;;;-1.00;96.30;;;;;;5024337;28;20055;-80
2023/02/08 08:26:49;;;;;;;4.40;2.10;;;-0.90;96.30;;;;;;5036961;28;20089;-80
2023/02/08 08:29:16;;;;;;;4.40;2.00;;;-0.90;96.30;;;;;;5052519;28;20071;-80
2023/02/08 08:31:44;;;;;;;4.60;1.83;;;-0.90;96.20;;;;;;5035778;28;20041;-80
2023/02/08 08:34:11;;;;;;;4.77;2.17;;;-0.80;96.20;;;;;;5036073;28;20448;-80
2023/02/08 08:36:38;;;;;;;5.50;1.83;;;-0.70;96.20;;;;;;5050067;28;20044;-80
2023/02/08 08:39:05;;;;;;;3.80;1.60;;;-0.70;96.10;;;;;;5056107;28;20060;-80
2023/02/08 08:41:32;;;;;;;4.73;1.93;;;-0.60;96.10;;;;;;5039254;28;20048;-80
2023/02/08 08:43:59;;;;;;;4.10;1.73;;;-0.60;96.00;;;;;;5039105;28;20040;-80
2023/02/08 08:46:26;;;;;;;3.90;2.10;;;-0.60;96.00;;;;;;5055901;28;20051;-79
2023/02/08 08:48:53;;;;;;;4.03;1.80;;;-0.50;96.00;;;;;;5055705;28;20036;-80
2023/02/08 08:51:20;;;;;;;4.77;2.10;;;-0.40;95.90;;;;;;5055578;28;20045;-81
2023/02/08 08:53:47;;;;;;;5.23;2.10;;;-0.40;95.80;;;;;;5059238;28;20393;-81
2023/02/08 08:56:14;;;;;;;5.17;2.50;;;-0.40;95.80;;;;;;5058899;28;20488;-79
2023/02/08 08:58:42;;;;;;;4.70;2.03;;;-0.30;95.80;;;;;;5042814;28;20036;-79
2023/02/08 09:01:09;;;;;;;5.73;2.27;;;-0.20;95.70;;;;;;5026240;28;20048;-79
2023/02/08 09:03:36;;;;;;;5.27;2.40;;;-0.20;95.70;;;;;;5075501;28;20495;-79
2023/02/08 09:06:03;;;;;;;4.83;2.17;;;-0.20;95.70;;;;;;5058702;28;20040;-79
2023/02/08 09:08:30;;;;;;;7.03;2.67;;;-0.20;95.60;;;;;;5058478;28;20596;-79
2023/02/08 09:11:14;;;;;;;5.33;2.33;;;-0.10;95.60;;;;;;5058611;28;20040;-80
2023/02/08 09:13:42;;;;;;;5.57;2.13;;;0.00;95.50;;;;;;5075137;28;20043;-80
2023/02/08 09:16:11;;;;;;;4.90;2.10;;;0.00;95.50;;;;;;5075129;28;20080;-80
2023/02/08 09:18:39;;;;;;;5.83;2.70;;;0.00;95.50;;;;;;5074935;28;20082;-80
2023/02/08 09:21:11;;;;;;;4.93;1.93;;;0.10;95.50;;;;;;5075054;28;20058;-80
2023/02/08 09:23:39;;;;;;;6.78;2.33;;;0.10;95.40;;;;;;5075144;28;20075;-79
2023/02/08 09:26:08;;;;;;;3.90;1.57;;;0.10;95.40;;;;;;5075100;28;20120;-78
2023/02/08 09:28:36;;;;;;;5.33;2.37;;;0.20;95.40;;;;;;5058248;28;20044;-80
2023/02/08 09:31:12;;;;;;;5.70;2.30;;;0.20;95.40;;;;;;5058160;28;20075;-81
2023/02/08 09:33:43;;;;;;;5.83;2.50;;;0.30;95.30;;;;;;5075065;28;20047;-80
2023/02/08 09:36:10;;;;;;;4.87;2.23;;;0.30;95.30;;;;;;5042040;28;20044;-81
2023/02/08 09:38:37;;;;;;;5.07;2.43;;;0.40;95.30;;;;;;5074755;28;20104;-80
2023/02/08 09:41:13;;;;;;;4.27;2.10;;;0.40;95.20;;;;;;5074904;28;20135;-81
2023/02/08 09:44:09;;;;;;;4.67;2.87;;;0.40;95.20;;;;;;5075180;28;20101;-80
2023/02/08 09:46:40;;;;;;;4.73;2.07;;;0.50;95.10;;;;;;5074870;28;20150;-80
2023/02/08 09:49:15;;;;;;;4.23;2.13;;;0.50;95.10;;;;;;5058284;28;20503;-80
2023/02/08 09:51:49;;;;;;;3.83;1.77;;;0.60;95.10;;;;;;5074849;28;20087;-80
2023/02/08 09:54:25;;;;;;;4.57;2.03;;;0.60;95.10;;;;;;5058006;28;20488;-80
2023/02/08 09:56:53;;;;;;;7.10;2.07;;;0.70;95.00;;;;;;5074698;28;20127;-80
2023/02/08 09:59:26;;;;;;;4.13;2.00;;;0.80;95.00;;;;;;5074484;28;20052;-79
2023/02/08 10:02:12;;;;;;;5.03;2.13;;;0.80;94.90;;;;;;5074195;28;20094;-81
2023/02/08 10:04:54;;;;;;;3.80;1.70;;;0.90;94.90;;;;;;5074678;28;20063;-81
2023/02/08 10:07:27;;;;;;;4.22;2.00;;;0.90;94.70;;;;;;5074884;28;20104;-80
2023/02/08 10:09:57;;;;;;;4.32;1.88;;;1.00;94.80;;;;;;5057210;28;20105;-80
2023/02/08 10:12:33;;;;;;;4.30;2.07;;;1.00;94.70;;;;;;5054649;28;20044;-80
2023/02/08 10:15:12;;;;;;;2.93;1.60;;;1.10;94.70;;;;;;5054785;28;20049;-81
2023/02/08 10:18:17;;;;;;;4.27;2.10;;;1.10;94.60;;;;;;5038187;28;20040;-80
2023/02/08 10:21:15;;;;;;;4.57;1.63;;;1.10;94.50;;;;;;5045484;28;20503;-81
2023/02/08 10:23:46;;;;;;;5.20;2.30;;;1.20;94.50;;;;;;5075158;28;20046;-80
2023/02/08 10:26:25;;;;;;;4.80;2.07;;;1.20;94.50;;;;;;5074449;28;20495;-81
2023/02/08 10:29:46;;;;;;;5.10;2.23;;;1.30;94.50;;;;;;5074928;28;20052;-81
2023/02/08 10:32:27;;;;;;;6.00;1.97;;;1.30;94.40;;;;;;4994255;28;20050;-80
2023/02/08 10:35:02;;;;;;;3.53;1.63;;;1.40;94.40;;;;;;5067098;28;20476;-81
2023/02/08 10:37:35;;;;;;;4.63;2.50;;;1.40;94.30;;;;;;5074372;28;20302;-81
2023/02/08 10:40:19;;;;;;;4.40;2.17;;;1.50;94.30;;;;;;5074355;28;20044;-81
2023/02/08 10:42:56;;;;;;;5.70;2.70;;;1.50;94.20;;;;;;5059260;28;20176;-81
2023/02/08 10:45:33;;;;;;;6.17;2.37;;;1.60;94.20;;;;;;5078117;28;20040;-80
2023/02/08 10:48:09;;;;;;;5.47;2.60;;;1.60;94.20;;;;;;5095211;28;20484;-81
2023/02/08 10:50:41;;;;;;;4.63;2.83;;;1.70;94.10;;;;;;5061298;28;20553;-81
2023/02/08 10:53:17;;;;;;;4.83;2.80;;;1.70;94.10;;;;;;5061247;28;20048;-81
2023/02/08 10:55:45;;;;;;;4.27;2.00;;;1.70;94.00;;;;;;5061208;28;20051;-81
2023/02/08 10:58:19;;;;;;;4.33;1.83;;;1.80;94.10;;;;;;5077928;28;20036;-81
2023/02/08 11:00:50;;;;;;;3.50;1.60;;;1.80;94.00;;;;;;5077523;28;20502;-80
2023/02/08 11:03:21;;;;;;;4.50;2.00;;;1.90;93.90;;;;;;5077560;28;20040;-80
2023/02/08 11:05:49;;;;;;;5.43;2.27;;;1.90;93.90;;;;;;5077719;28;20064;-81
2023/02/08 11:08:19;;;;;;;4.83;2.03;;;2.00;93.90;;;;;;5061552;28;20070;-81
2023/02/08 11:10:55;;;;;;;3.90;2.03;;;2.00;93.80;;;;;;5077685;28;20063;-81
2023/02/08 11:13:25;;;;;;;4.50;1.90;;;2.10;93.70;;;;;;5077631;28;20051;-81
2023/02/08 11:15:59;;;;;;;5.63;2.50;;;2.10;93.70;;;;;;5060923;28;20040;-81
2023/02/08 11:18:30;;;;;;;4.40;2.57;;;2.10;93.70;;;;;;5077820;28;20055;-81
2023/02/08 11:21:01;;;;;;;5.07;2.00;;;2.10;93.70;;;;;;5077526;28;20040;-81
2023/02/08 11:23:31;;;;;;;4.83;1.80;;;2.10;93.60;;;;;;5060909;28;20478;-78
2023/02/08 11:26:14;;;;;;;5.70;2.37;;;2.20;93.60;;;;;;5077190;28;20044;-78
2023/02/08 11:28:41;;;;;;;3.72;1.88;;;2.20;93.50;;;;;;5060708;28;20484;-77
2023/02/08 11:31:18;;;;;;;4.80;2.40;;;2.20;93.50;;;;;;5044917;28;20044;-77
2023/02/08 11:34:08;;;;;;;4.30;1.57;;;2.30;93.40;;;;;;5057523;28;20060;-77
2023/02/08 11:36:48;;;;;;;3.63;1.57;;;2.40;93.30;;;;;;5040639;28;20056;-78
2023/02/08 11:39:26;;;;;;;3.50;1.70;;;2.40;93.30;;;;;;5040834;28;20504;-78
2023/02/08 11:41:57;;;;;;;2.87;1.23;;;2.50;93.20;;;;;;5059882;28;20101;-78
2023/02/08 11:44:34;;;;;;;3.57;1.53;;;2.60;93.10;;;;;;5052641;28;20106;-78
2023/02/08 11:47:05;;;;;;;5.03;2.23;;;2.60;93.00;;;;;;5073358;28;20048;-79
2023/02/08 11:49:41;;;;;;;4.03;1.43;;;2.70;93.00;;;;;;5040240;28;20063;-79
2023/02/08 11:52:24;;;;;;;3.27;1.63;;;2.80;92.90;;;;;;5057126;28;20037;-78
2023/02/08 11:54:52;;;;;;;3.93;1.37;;;2.80;92.80;;;;;;5074595;28;20462;-79
2023/02/08 11:57:23;;;;;;;2.60;1.37;;;2.80;92.80;;;;;;5040127;28;20094;-78
2023/02/08 12:00:11;;;;;;;3.50;1.30;;;2.90;92.70;;;;;;5039968;28;20049;-79
2023/02/08 12:02:39;;;;;;;2.63;1.00;;;2.90;92.70;;;;;;5056916;28;20461;-78
2023/02/08 12:05:14;;;;;;;3.10;1.65;;;3.00;92.60;;;;;;5057937;28;20055;-78
2023/02/08 12:07:52;;;;;;;4.50;1.70;;;3.10;92.50;;;;;;5076185;28;20040;-78
2023/02/08 12:10:44;;;;;;;3.63;1.70;;;3.10;92.40;;;;;;5077630;28;20036;-79
2023/02/08 12:13:34;;;;;;;3.70;1.77;;;3.20;92.30;;;;;;5075898;28;20928;-78
2023/02/08 12:16:46;;;;;;;3.60;1.47;;;3.20;92.20;;;;;;5055701;28;20051;-78
2023/02/08 12:20:00;;;;;;;3.03;1.20;;;3.30;92.10;;;;;;5029309;28;20070;-79
2023/02/08 12:22:28;;;;;;;3.23;1.50;;;3.30;92.10;;;;;;5030904;28;20052;-78
2023/02/08 12:25:33;;;;;;;3.77;1.43;;;3.30;92.00;;;;;;5094189;28;20055;-78
2023/02/08 12:28:16;;;;;;;4.13;1.55;;;3.40;91.90;;;;;;5059226;28;20051;-84
2023/02/08 12:31:00;;;;;;;3.00;1.37;;;3.40;91.90;;;;;;5076029;28;20040;-79
2023/02/08 12:33:34;;;;;;;4.03;1.40;;;3.50;91.80;;;;;;5075799;28;20052;-80
2023/02/08 12:36:27;;;;;;;2.92;1.20;;;3.50;91.90;;;;;;5059105;28;20044;-81
2023/02/08 12:42:30;;;;;;;4.63;1.92;;;3.50;91.70;;;;;;5075804;28;20399;-81
2023/02/08 12:45:10;;;;;;;3.50;1.60;;;3.60;91.60;;;;;;5075527;28;20066;-82
2023/02/08 12:47:50;;;;;;;3.30;1.10;;;3.60;91.60;;;;;;5075470;28;20065;-82
2023/02/08 12:50:49;;;;;;;3.47;1.63;;;3.70;91.50;;;;;;5075297;28;20047;-82
2023/02/08 12:53:44;;;;;;;3.85;1.60;;;3.70;91.40;;;;;;5075450;28;20043;-81
2023/02/08 12:56:31;;;;;;;2.90;1.40;;;3.70;91.40;;;;;;5092284;28;20040;-81
2023/02/08 12:59:05;;;;;;;3.03;1.37;;;3.80;91.30;;;;;;5058749;28;20492;-82
2023/02/08 13:01:50;;;;;;;3.22;1.48;;;3.80;91.30;;;;;;5076504;28;20044;-80
2023/02/08 13:04:51;;;;;;;2.90;1.55;;;3.90;91.20;;;;;;5058608;28;20052;-82
2023/02/08 13:07:40;;;;;;;2.67;1.00;;;3.90;91.10;;;;;;5038006;28;20051;-83
2023/02/08 13:10:27;;;;;;;3.25;1.40;;;3.90;91.00;;;;;;5058888;28;20044;-81
2023/02/08 13:12:58;;;;;;;2.05;0.93;;;3.90;91.00;;;;;;5074969;28;20047;-81
2023/02/08 13:15:43;;;;;;;3.53;1.40;;;3.90;91.00;;;;;;5072550;28;20052;-81
2023/02/08 13:18:19;;;;;;;2.35;1.15;;;4.00;90.90;;;;;;5055085;28;20045;-79
2023/02/08 13:20:55;;;;;;;2.42;1.20;;;4.10;90.80;;;;;;5055667;28;20086;-78
2023/02/08 13:23:28;;;;;;;2.95;1.40;;;4.20;90.70;;;;;;5054569;28;20036;-78